createdAt,value
2022-10-06T00:01:14.764Z,1.30
2022-10-06T00:03:43.325Z,1.83
2022-10-06T00:06:12.801Z,1.88
2022-10-06T00:08:42.043Z,1.80
2022-10-06T00:11:12.518Z,1.63
2022-10-06T00:13:40.438Z,1.60
2022-10-06T00:16:13.450Z,1.70
2022-10-06T00:18:41.026Z,1.43
2022-10-06T00:21:08.405Z,1.60
2022-10-06T00:23:35.951Z,1.50
2022-10-06T00:26:03.465Z,1.73
2022-10-06T00:28:31.233Z,1.40
2022-10-06T00:31:02.134Z,1.58
2022-10-06T00:33:29.659Z,1.45
2022-10-06T00:35:58.632Z,1.33
2022-10-06T00:38:27.806Z,1.38
2022-10-06T00:40:55.796Z,1.55
2022-10-06T00:43:52.274Z,1.95
2022-10-06T00:46:25.694Z,2.20
2022-10-06T00:48:59.978Z,1.60
2022-10-06T00:51:29.365Z,1.88
2022-10-06T00:53:58.261Z,2.25
2022-10-06T00:56:26.784Z,1.88
2022-10-06T00:58:54.211Z,1.90
2022-10-06T01:01:22.297Z,1.90
2022-10-06T01:03:55.783Z,2.63
2022-10-06T01:06:23.275Z,3.20
2022-10-06T01:08:50.877Z,2.00
2022-10-06T01:11:18.395Z,2.13
2022-10-06T01:13:47.105Z,1.80
2022-10-06T01:16:23.541Z,2.30
2022-10-06T01:18:55.003Z,2.25
2022-10-06T01:21:40.990Z,1.92
2022-10-06T01:24:10.013Z,1.75
2022-10-06T01:26:43.056Z,1.90
2022-10-06T01:29:10.863Z,1.77
2022-10-06T01:31:39.511Z,1.98
2022-10-06T01:34:07.277Z,2.03
2022-10-06T01:36:34.782Z,2.28
2022-10-06T01:39:02.264Z,2.17
2022-10-06T01:41:31.015Z,1.95
2022-10-06T01:43:59.027Z,2.10
2022-10-06T01:46:32.251Z,1.90
2022-10-06T01:48:59.964Z,1.90
2022-10-06T01:51:27.436Z,2.00
2022-10-06T01:53:55.135Z,2.40
2022-10-06T01:56:23.315Z,2.40
2022-10-06T01:58:51.388Z,2.00
2022-10-06T02:01:19.141Z,2.15
2022-10-06T02:03:46.734Z,2.47
2022-10-06T02:06:14.230Z,2.80
2022-10-06T02:08:43.736Z,2.40
2022-10-06T02:11:12.774Z,3.47
2022-10-06T02:13:44.493Z,5.20
2022-10-06T02:16:14.265Z,2.00
2022-10-06T02:18:43.884Z,2.28
2022-10-06T02:21:19.901Z,2.40
2022-10-06T02:23:47.812Z,2.60
2022-10-06T02:26:17.726Z,2.30
2022-10-06T02:28:47.526Z,2.50
2022-10-06T02:31:19.566Z,2.65
2022-10-06T02:33:48.452Z,2.88
2022-10-06T02:36:18.701Z,2.58
2022-10-06T02:38:46.218Z,2.55
2022-10-06T02:41:13.698Z,2.80
2022-10-06T02:43:41.468Z,2.75
2022-10-06T02:46:13.037Z,2.75
2022-10-06T02:48:46.127Z,2.80
2022-10-06T02:51:16.359Z,2.88
2022-10-06T02:53:47.726Z,3.00
2022-10-06T02:56:18.036Z,2.65
2022-10-06T02:58:50.546Z,2.80
2022-10-06T03:01:28.547Z,2.85
2022-10-06T03:03:59.348Z,2.67
2022-10-06T03:06:30.172Z,2.95
2022-10-06T03:09:30.626Z,2.78
2022-10-06T03:11:58.332Z,3.08
2022-10-06T03:14:35.244Z,3.58
2022-10-06T03:17:03.913Z,2.83
2022-10-06T03:19:32.268Z,2.85
2022-10-06T03:22:00.335Z,3.08
2022-10-06T03:24:38.911Z,2.60
2022-10-06T03:27:06.462Z,2.45
2022-10-06T03:29:34.365Z,2.25
2022-10-06T03:32:03.465Z,2.83
2022-10-06T03:34:31.118Z,2.55
2022-10-06T03:37:01.551Z,2.40
2022-10-06T03:39:29.780Z,2.60
2022-10-06T03:41:57.421Z,2.65
2022-10-06T03:44:25.647Z,2.80
2022-10-06T03:46:53.356Z,2.58
2022-10-06T03:49:20.994Z,3.00
2022-10-06T03:51:48.589Z,2.58
2022-10-06T03:54:21.522Z,2.70
2022-10-06T03:56:51.004Z,3.15
2022-10-06T03:59:19.776Z,4.13
2022-10-06T04:01:49.130Z,4.78
2022-10-06T04:04:38.189Z,3.80
2022-10-06T04:07:10.416Z,3.80
2022-10-06T04:09:37.961Z,3.55
2022-10-06T04:12:05.492Z,2.95
2022-10-06T04:14:35.654Z,3.95
2022-10-06T04:17:04.054Z,3.20
2022-10-06T04:19:35.080Z,3.28
2022-10-06T04:22:04.001Z,2.90
2022-10-06T04:24:32.411Z,3.80
2022-10-06T04:27:19.837Z,4.38
2022-10-06T04:30:10.027Z,4.40
2022-10-06T04:32:38.017Z,4.03
2022-10-06T04:35:05.771Z,3.30
2022-10-06T04:37:33.522Z,2.58
2022-10-06T04:40:01.540Z,3.20
2022-10-06T04:42:35.059Z,3.05
2022-10-06T04:45:05.841Z,3.75
2022-10-06T04:47:34.194Z,3.60
2022-10-06T04:50:01.947Z,2.97
2022-10-06T04:52:31.329Z,3.33
2022-10-06T04:54:58.854Z,3.60
2022-10-06T04:57:26.528Z,3.17
2022-10-06T05:00:14.886Z,3.30
2022-10-06T05:02:45.538Z,3.75
2022-10-06T05:05:13.179Z,3.38
2022-10-06T05:07:40.662Z,4.32
2022-10-06T05:10:08.730Z,4.00
2022-10-06T05:12:38.173Z,3.75
2022-10-06T05:15:07.619Z,4.75
2022-10-06T05:17:36.030Z,4.45
2022-10-06T05:20:03.861Z,6.20
2022-10-06T05:22:32.121Z,4.70
2022-10-06T05:24:59.739Z,4.40
2022-10-06T05:27:27.397Z,3.78
2022-10-06T05:29:55.230Z,3.30
2022-10-06T05:32:22.777Z,3.67
2022-10-06T05:34:50.496Z,3.85
2022-10-06T05:37:18.338Z,3.60
2022-10-06T05:39:47.095Z,3.28
2022-10-06T05:42:14.662Z,3.30
2022-10-06T05:44:43.090Z,3.30
2022-10-06T05:47:12.620Z,3.00
2022-10-06T05:49:40.182Z,2.85
2022-10-06T05:52:07.934Z,2.50
2022-10-06T05:54:37.891Z,2.95
2022-10-06T05:57:07.307Z,2.50
2022-10-06T05:59:35.582Z,2.78
2022-10-06T06:02:04.780Z,3.33
2022-10-06T06:04:37.473Z,4.00
2022-10-06T06:07:05.734Z,3.20
2022-10-06T06:09:33.891Z,2.80
2022-10-06T06:12:03.399Z,3.00
2022-10-06T06:15:11.191Z,2.90
2022-10-06T06:17:46.584Z,2.88
2022-10-06T06:20:14.349Z,2.65
2022-10-06T06:22:41.868Z,2.55
2022-10-06T06:25:09.914Z,2.72
2022-10-06T06:27:37.391Z,3.40
2022-10-06T06:30:06.382Z,2.90
2022-10-06T06:32:35.045Z,2.60
2022-10-06T06:35:03.445Z,2.47
2022-10-06T06:37:31.696Z,2.40
2022-10-06T06:39:59.871Z,2.80
2022-10-06T06:42:28.107Z,2.55
2022-10-06T06:45:18.677Z,3.30
2022-10-06T06:50:32.017Z,2.40
2022-10-06T06:53:02.700Z,2.25
2022-10-06T06:55:32.825Z,2.35
2022-10-06T06:58:01.067Z,2.58
2022-10-06T07:00:33.814Z,2.53
2022-10-06T07:03:06.387Z,2.38
2022-10-06T07:05:35.333Z,2.30
2022-10-06T07:08:03.089Z,2.47
2022-10-06T07:10:31.849Z,2.50
2022-10-06T07:12:59.469Z,2.83
2022-10-06T07:15:45.262Z,2.78
2022-10-06T07:18:31.764Z,2.05
2022-10-06T07:21:18.580Z,2.35
2022-10-06T07:24:09.897Z,2.20
2022-10-06T07:26:37.788Z,2.38
2022-10-06T07:29:05.374Z,2.05
2022-10-06T07:31:36.019Z,2.30
2022-10-06T07:34:05.146Z,2.17
2022-10-06T07:36:32.912Z,2.40
2022-10-06T07:39:00.751Z,2.33
2022-10-06T07:41:29.877Z,2.28
2022-10-06T07:44:04.572Z,2.50
2022-10-06T07:46:34.984Z,2.70
2022-10-06T07:49:06.230Z,2.85
2022-10-06T07:51:33.754Z,3.15
2022-10-06T07:54:03.193Z,3.25
2022-10-06T07:56:40.954Z,3.28
2022-10-06T07:59:08.449Z,3.40
2022-10-06T08:01:36.109Z,3.40
2022-10-06T08:04:07.062Z,3.45
2022-10-06T08:06:35.169Z,3.83
2022-10-06T08:09:02.831Z,5.63
2022-10-06T08:11:30.447Z,6.30
2022-10-06T08:13:58.377Z,5.13
2022-10-06T08:16:30.783Z,4.63
2022-10-06T08:18:59.640Z,5.03
2022-10-06T08:21:29.976Z,5.18
2022-10-06T08:23:59.071Z,4.93
2022-10-06T08:26:27.946Z,5.05
2022-10-06T08:29:06.141Z,5.60
2022-10-06T08:31:33.833Z,5.00
2022-10-06T08:34:01.817Z,5.38
2022-10-06T08:36:32.302Z,5.50
2022-10-06T08:39:01.425Z,3.63
2022-10-06T08:41:45.073Z,3.50
2022-10-06T08:44:16.913Z,3.72
2022-10-06T08:47:25.320Z,3.65
2022-10-06T08:49:55.529Z,3.30
2022-10-06T08:52:23.259Z,3.90
2022-10-06T08:55:02.749Z,3.53
2022-10-06T08:57:34.950Z,3.55
2022-10-06T09:00:03.730Z,4.75
2022-10-06T09:02:42.521Z,4.13
2022-10-06T09:05:14.014Z,4.10
2022-10-06T09:08:18.919Z,4.07
2022-10-06T09:11:04.796Z,4.40
2022-10-06T09:13:41.218Z,5.47
2022-10-06T09:16:19.785Z,5.88
2022-10-06T09:19:08.203Z,5.70
2022-10-06T09:21:42.690Z,4.90
2022-10-06T09:24:17.451Z,4.25
2022-10-06T09:26:50.090Z,4.38
2022-10-06T09:29:17.969Z,4.53
2022-10-06T09:31:55.646Z,4.55
2022-10-06T09:34:36.664Z,5.00
2022-10-06T09:37:13.118Z,4.80
2022-10-06T09:39:43.459Z,5.10
2022-10-06T09:42:10.832Z,3.97
2022-10-06T09:44:48.446Z,4.40
2022-10-06T09:47:42.072Z,4.50
2022-10-06T09:50:12.463Z,4.30
2022-10-06T09:52:42.005Z,4.15
2022-10-06T09:55:15.845Z,4.38
2022-10-06T09:57:52.202Z,3.20
2022-10-06T10:00:32.281Z,3.80
2022-10-06T10:03:04.640Z,3.20
2022-10-06T10:05:35.060Z,3.38
2022-10-06T10:08:22.498Z,3.47
2022-10-06T10:10:51.729Z,3.20
2022-10-06T10:13:24.921Z,3.60
2022-10-06T10:15:55.035Z,3.10
2022-10-06T10:18:29.051Z,3.55
2022-10-06T10:21:06.587Z,3.20
2022-10-06T10:23:41.123Z,2.92
2022-10-06T10:26:39.288Z,3.90
2022-10-06T10:29:21.805Z,3.38
2022-10-06T10:31:58.378Z,3.20
2022-10-06T10:34:54.504Z,2.80
2022-10-06T10:37:31.316Z,2.70
2022-10-06T10:40:03.498Z,2.95
2022-10-06T10:43:00.362Z,3.15
2022-10-06T10:45:36.833Z,2.80
2022-10-06T10:48:15.070Z,2.88
2022-10-06T10:51:00.855Z,3.08
2022-10-06T10:53:51.920Z,3.20
2022-10-06T10:56:24.625Z,3.40
2022-10-06T10:59:02.250Z,3.00
2022-10-06T11:01:44.394Z,2.90
2022-10-06T11:04:13.780Z,3.28
2022-10-06T11:06:59.591Z,3.10
2022-10-06T11:09:34.150Z,2.90
2022-10-06T11:12:26.634Z,2.97
2022-10-06T11:15:07.247Z,2.95
2022-10-06T11:17:44.912Z,3.15
2022-10-06T11:20:40.180Z,3.28
2022-10-06T11:23:19.705Z,3.30
2022-10-06T11:26:14.672Z,2.97
2022-10-06T11:29:00.645Z,3.28
2022-10-06T11:31:43.099Z,3.30
2022-10-06T11:34:11.171Z,3.20
2022-10-06T11:36:41.564Z,3.22
2022-10-06T11:39:52.429Z,3.00
2022-10-06T11:42:34.874Z,3.65
2022-10-06T11:45:14.113Z,2.90
2022-10-06T11:47:56.656Z,3.13
2022-10-06T11:50:55.525Z,2.88
2022-10-06T11:53:37.193Z,3.20
2022-10-06T11:56:19.918Z,3.22
2022-10-06T11:58:56.632Z,3.28
2022-10-06T12:01:39.606Z,2.95
2022-10-06T12:04:10.288Z,3.47
2022-10-06T12:06:46.962Z,3.10
2022-10-06T12:09:31.374Z,3.20
2022-10-06T12:12:07.399Z,3.28
2022-10-06T12:17:47.532Z,3.35
2022-10-06T12:20:29.643Z,3.25
2022-10-06T12:23:09.260Z,3.08
2022-10-06T12:26:03.726Z,3.00
2022-10-06T12:28:42.507Z,2.60
2022-10-06T12:31:36.034Z,2.58
2022-10-06T12:34:03.547Z,2.50
2022-10-06T12:36:32.405Z,2.83
2022-10-06T12:39:05.341Z,2.70
2022-10-06T12:41:54.793Z,2.90
2022-10-06T12:44:26.720Z,3.00
2022-10-06T12:46:56.410Z,2.90
2022-10-06T12:49:32.132Z,2.88
2022-10-06T12:52:08.616Z,3.20
2022-10-06T12:55:03.638Z,3.40
2022-10-06T12:57:31.361Z,3.13
2022-10-06T12:59:58.819Z,2.83
2022-10-06T13:02:28.218Z,2.60
2022-10-06T13:05:09.922Z,2.45
2022-10-06T13:07:57.421Z,2.85
2022-10-06T13:10:25.129Z,2.70
2022-10-06T13:12:53.034Z,3.28
2022-10-06T13:15:25.529Z,3.13
2022-10-06T13:18:08.231Z,2.50
2022-10-06T13:20:37.617Z,2.78
2022-10-06T13:23:31.426Z,2.33
2022-10-06T13:26:05.375Z,2.50
2022-10-06T13:28:44.718Z,3.00
2022-10-06T13:31:15.211Z,3.10
2022-10-06T13:33:47.500Z,2.72
2022-10-06T13:36:15.583Z,3.08
2022-10-06T13:38:43.122Z,2.63
2022-10-06T13:41:32.502Z,2.53
2022-10-06T13:44:03.882Z,2.55
2022-10-06T13:46:40.037Z,2.70
2022-10-06T13:49:25.045Z,2.22
2022-10-06T13:51:55.673Z,2.60
2022-10-06T13:54:29.811Z,3.08
2022-10-06T13:56:57.498Z,2.65
2022-10-06T13:59:37.309Z,3.05
2022-10-06T14:02:20.012Z,3.30
2022-10-06T14:05:38.803Z,3.47
2022-10-06T14:08:11.990Z,2.70
2022-10-06T14:10:46.275Z,3.20
2022-10-06T14:13:21.247Z,3.35
2022-10-06T14:15:58.803Z,2.78
2022-10-06T14:18:45.186Z,3.20
2022-10-06T14:21:39.633Z,3.00
2022-10-06T14:24:16.035Z,3.20
2022-10-06T14:26:45.035Z,3.70
2022-10-06T14:29:16.236Z,3.15
2022-10-06T14:31:45.048Z,3.05
2022-10-06T14:34:15.576Z,3.88
2022-10-06T14:36:55.463Z,3.28
2022-10-06T14:39:22.951Z,2.80
2022-10-06T14:41:50.578Z,2.97
2022-10-06T14:44:17.935Z,3.08
2022-10-06T14:46:48.537Z,3.00
2022-10-06T14:49:16.207Z,3.10
2022-10-06T14:51:45.884Z,3.10
2022-10-06T14:54:13.775Z,3.20
2022-10-06T14:56:41.825Z,2.63
2022-10-06T14:59:12.792Z,2.75
2022-10-06T15:01:41.020Z,3.25
2022-10-06T15:04:16.891Z,3.28
2022-10-06T15:07:02.762Z,2.97
2022-10-06T15:09:31.294Z,3.10
2022-10-06T15:12:00.054Z,3.40
2022-10-06T15:14:28.699Z,3.00
2022-10-06T15:16:59.361Z,3.03
2022-10-06T15:19:27.565Z,3.53
2022-10-06T15:21:54.897Z,3.55
2022-10-06T15:24:22.452Z,3.30
2022-10-06T15:27:08.192Z,3.22
2022-10-06T15:29:35.701Z,3.03
2022-10-06T15:32:06.811Z,3.20
2022-10-06T15:34:37.144Z,3.28
2022-10-06T15:37:05.819Z,3.78
2022-10-06T15:39:36.425Z,3.45
2022-10-06T15:42:04.512Z,3.30
2022-10-06T15:44:34.810Z,4.00
2022-10-06T15:47:05.406Z,3.70
2022-10-06T15:49:38.301Z,3.50
2022-10-06T15:52:06.968Z,3.27
2022-10-06T15:54:42.657Z,3.40
2022-10-06T15:57:16.429Z,3.67
2022-10-06T15:59:47.135Z,3.65
2022-10-06T16:02:17.289Z,3.63
2022-10-06T16:04:45.828Z,3.67
2022-10-06T16:07:14.662Z,4.03
2022-10-06T16:09:44.955Z,4.25
2022-10-06T16:12:16.844Z,4.00
2022-10-06T16:14:45.033Z,3.70
2022-10-06T16:17:13.511Z,4.43
2022-10-06T16:19:41.264Z,4.00
2022-10-06T16:22:13.002Z,3.80
2022-10-06T16:24:40.716Z,5.20
2022-10-06T16:27:11.917Z,3.83
2022-10-06T16:29:39.598Z,4.28
2022-10-06T16:32:07.348Z,3.85
2022-10-06T16:34:34.867Z,4.13
2022-10-06T16:37:02.554Z,3.75
2022-10-06T16:39:30.704Z,3.65
2022-10-06T16:41:58.514Z,3.95
2022-10-06T16:44:26.267Z,3.72
2022-10-06T16:46:53.800Z,4.38
2022-10-06T16:49:21.597Z,3.97
2022-10-06T16:51:49.038Z,3.85
2022-10-06T16:54:21.165Z,4.32
2022-10-06T16:56:52.891Z,3.85
2022-10-06T16:59:22.390Z,4.07
2022-10-06T17:01:51.059Z,4.00
2022-10-06T17:04:23.495Z,4.10
2022-10-06T17:06:53.944Z,4.03
2022-10-06T17:09:24.086Z,4.28
2022-10-06T17:11:54.344Z,4.22
2022-10-06T17:14:22.448Z,4.20
2022-10-06T17:16:51.916Z,3.95
2022-10-06T17:19:21.583Z,3.97
2022-10-06T17:21:54.097Z,4.28
2022-10-06T17:24:28.799Z,4.07
2022-10-06T17:26:58.278Z,4.63
2022-10-06T17:29:26.584Z,4.47
2022-10-06T17:31:59.696Z,4.28
2022-10-06T17:34:33.603Z,4.35
2022-10-06T17:39:29.625Z,4.68
2022-10-06T17:41:57.272Z,4.07
2022-10-06T17:44:27.496Z,4.50
2022-10-06T17:47:00.786Z,4.38
2022-10-06T17:49:30.690Z,4.35
2022-10-06T17:51:58.416Z,4.57
2022-10-06T17:54:27.419Z,3.97
2022-10-06T17:56:57.327Z,4.10
2022-10-06T17:59:28.756Z,4.10
2022-10-06T18:01:58.114Z,3.67
2022-10-06T18:04:26.871Z,3.50
2022-10-06T18:06:54.834Z,3.90
2022-10-06T18:09:23.112Z,3.85
2022-10-06T18:11:55.963Z,3.63
2022-10-06T18:14:30.591Z,3.60
2022-10-06T18:17:01.055Z,3.80
2022-10-06T18:19:31.467Z,3.30
2022-10-06T18:22:03.078Z,3.85
2022-10-06T18:24:31.655Z,4.15
2022-10-06T18:27:00.624Z,3.78
2022-10-06T18:29:31.250Z,3.50
2022-10-06T18:32:26.965Z,3.65
2022-10-06T18:37:35.073Z,3.97
2022-10-06T18:40:06.324Z,3.78
2022-10-06T18:42:34.366Z,3.55
2022-10-06T18:45:20.216Z,3.88
2022-10-06T18:48:06.394Z,3.90
2022-10-06T18:50:35.448Z,3.95
2022-10-06T18:53:04.596Z,3.60
2022-10-06T18:55:32.913Z,4.32
2022-10-06T18:58:00.475Z,4.05
2022-10-06T19:00:27.965Z,5.53
2022-10-06T19:02:57.040Z,4.63
2022-10-06T19:05:24.823Z,4.60
2022-10-06T19:07:55.567Z,4.90
2022-10-06T19:10:23.093Z,5.22
2022-10-06T19:12:50.589Z,4.00
2022-10-06T19:15:20.645Z,4.15
2022-10-06T19:17:50.218Z,3.83
2022-10-06T19:20:18.850Z,4.30
2022-10-06T19:22:47.958Z,4.85
2022-10-06T19:25:19.133Z,4.22
2022-10-06T19:27:47.221Z,3.60
2022-10-06T19:30:15.093Z,4.20
2022-10-06T19:32:42.560Z,4.38
2022-10-06T19:35:10.694Z,4.38
2022-10-06T19:37:39.297Z,4.05
2022-10-06T19:40:08.979Z,3.67
2022-10-06T19:42:51.282Z,3.80
2022-10-06T19:45:19.306Z,3.75
2022-10-06T19:47:47.627Z,3.33
2022-10-06T19:50:17.322Z,3.63
2022-10-06T19:52:45.878Z,3.67
2022-10-06T19:55:13.894Z,3.20
2022-10-06T19:57:41.579Z,3.60
2022-10-06T20:00:10.499Z,3.67
2022-10-06T20:02:43.152Z,3.25
2022-10-06T20:05:14.081Z,3.05
2022-10-06T20:07:44.150Z,3.40
2022-10-06T20:10:13.072Z,3.42
2022-10-06T20:12:44.041Z,3.20
2022-10-06T20:15:13.713Z,3.47
2022-10-06T20:17:43.333Z,3.38
2022-10-06T20:20:11.090Z,3.33
2022-10-06T20:22:38.461Z,3.40
2022-10-06T20:25:07.347Z,3.53
2022-10-06T20:27:34.807Z,3.22
2022-10-06T20:30:02.323Z,3.40
2022-10-06T20:32:30.857Z,3.45
2022-10-06T20:34:58.405Z,3.40
2022-10-06T20:37:25.797Z,3.30
2022-10-06T20:40:11.866Z,3.28
2022-10-06T20:42:41.625Z,3.30
2022-10-06T20:45:09.433Z,3.30
2022-10-06T20:47:36.897Z,3.00
2022-10-06T20:50:04.512Z,3.55
2022-10-06T20:52:31.909Z,3.45
2022-10-06T20:54:59.391Z,3.30
2022-10-06T20:57:44.152Z,3.33
2022-10-06T21:00:12.370Z,3.72
2022-10-06T21:02:39.917Z,3.22
2022-10-06T21:05:09.119Z,2.88
2022-10-06T21:07:36.677Z,2.90
2022-10-06T21:10:04.190Z,3.17
2022-10-06T21:12:32.532Z,2.85
2022-10-06T21:14:59.962Z,2.97
2022-10-06T21:17:27.513Z,2.85
2022-10-06T21:19:55.022Z,3.08
2022-10-06T21:22:22.349Z,2.47
2022-10-06T21:24:49.745Z,2.60
2022-10-06T21:27:18.599Z,3.10
2022-10-06T21:29:46.023Z,3.28
2022-10-06T21:32:13.373Z,4.10
2022-10-06T21:34:40.726Z,3.53
2022-10-06T21:37:08.269Z,3.83
2022-10-06T21:39:35.638Z,4.10
2022-10-06T21:42:03.050Z,4.60
2022-10-06T21:44:30.445Z,4.40
2022-10-06T21:47:02.665Z,5.10
2022-10-06T21:49:30.462Z,4.13
2022-10-06T21:52:04.892Z,3.95
2022-10-06T21:54:32.346Z,4.18
2022-10-06T21:56:59.764Z,4.30
2022-10-06T21:59:27.128Z,4.60
2022-10-06T22:01:54.593Z,4.40
2022-10-06T22:04:22.021Z,3.97
2022-10-06T22:06:50.865Z,4.28
2022-10-06T22:09:19.995Z,3.85
2022-10-06T22:11:47.568Z,3.60
2022-10-06T22:14:17.545Z,3.10
2022-10-06T22:16:45.039Z,2.70
2022-10-06T22:19:14.458Z,3.25
2022-10-06T22:21:44.008Z,2.97
2022-10-06T22:24:15.508Z,3.17
2022-10-06T22:26:43.975Z,3.10
2022-10-06T22:29:14.435Z,3.10
2022-10-06T22:31:44.223Z,3.42
2022-10-06T22:34:14.297Z,3.22
2022-10-06T22:36:41.821Z,2.95
2022-10-06T22:39:09.354Z,3.13
2022-10-06T22:41:37.101Z,3.40
2022-10-06T22:44:04.849Z,3.50
2022-10-06T22:46:34.350Z,3.78
2022-10-06T22:49:02.478Z,3.50
2022-10-06T22:51:29.858Z,5.50
2022-10-06T22:53:59.397Z,6.00
2022-10-06T22:56:28.637Z,4.68
2022-10-06T22:59:00.053Z,3.88
2022-10-06T23:01:29.150Z,4.22
2022-10-06T23:03:57.517Z,3.88
2022-10-06T23:06:25.392Z,4.18
2022-10-06T23:08:53.439Z,4.07
2022-10-06T23:11:22.030Z,3.90
2022-10-06T23:13:50.758Z,3.78
2022-10-06T23:16:20.229Z,4.38
2022-10-06T23:18:48.763Z,3.80
2022-10-06T23:21:22.387Z,3.38
2022-10-06T23:26:19.412Z,3.80
2022-10-06T23:28:52.173Z,3.53
2022-10-06T23:31:19.844Z,3.67
2022-10-06T23:33:47.484Z,3.78
2022-10-06T23:36:15.348Z,3.55
2022-10-06T23:38:42.849Z,3.38
2022-10-06T23:41:10.385Z,3.20
2022-10-06T23:43:37.809Z,3.60
2022-10-06T23:46:05.415Z,4.75
2022-10-06T23:48:32.883Z,4.57
2022-10-06T23:51:06.232Z,4.38
2022-10-06T23:53:34.702Z,4.00
2022-10-06T23:56:02.588Z,4.00
2022-10-06T23:58:30.253Z,3.83
